Mason Valley Wildlife Refuge, Nevada Weather observations

Data are for 10 minute period ending at time listed.
 Day   Time   Solar   Ave.   Ave.  Ave.  Vector  Max.   Baro.   Total    
  of    of     Rad.   Air    Rel.  Wind   Wind   Wind  Press.  Precip.   
Year   Day            Temp.  Hum.  Speed  Dir.   Gust                    
2016   (PST)  Kw/m2    F      %     mph   deg.    mph    mb.     in.     
-------------------------------------------------------------------------
  36    4:50   0.00   10.4    91    0.0    35     0.9   882.3    0.00 
  36    5:00   0.00   11.1    91    0.2    46     1.1   882.4    0.00 
  36    5:10   0.00   10.9    91    0.0     0     0.0   882.4    0.00 
  36    5:20   0.00   11.0    92    0.0     0     0.0   882.5    0.00 
  36    5:30   0.00   11.5    92    0.6   284     1.9   882.5    0.00 
  36    5:40   0.00   11.0    91    2.7   253     3.7   882.6    0.00 
  36    5:50   0.00   11.1    92    2.7   228     3.2   882.6    0.00 
  36    6:00   0.00    9.7    90    2.4   208     3.1   882.6    0.00 
  36    6:10   0.00    9.6    91    1.9   175     3.1   882.7    0.00 
  36    6:20   0.00   10.1    91    0.7   152     2.1   882.7    0.00 
  36    6:30   0.00    9.7    91    1.0   163     1.5   882.8    0.00 
  36    6:40   0.00    9.8    91    0.1   292     1.2   882.9    0.00 
  36    6:50   0.00    9.6    90    1.0   258     1.9   882.9    0.00 
  36    7:00   0.00    9.3    91    2.1   121     3.2   882.9    0.00 
  36    7:10   0.01    9.5    91    1.6   114     2.3   883.0    0.00 
  36    7:20   0.01    9.9    91    1.4   112     2.3   883.0    0.00 
  36    7:30   0.02   11.0    92    1.3   125     2.3   883.1    0.00 
  36    7:40   0.05   12.8    93    0.7   128     2.1   883.1    0.00 
  36    7:50   0.07   13.0    91    0.8   199     1.5   883.2    0.00 
  36    8:00   0.09   13.5    91    1.2   212     1.8   883.2    0.00 
  36    8:10   0.11   14.9    93    0.2   201     1.1   883.1    0.00 
  36    8:20   0.13   17.0    92    0.0     0     0.0   883.1    0.00 
  36    8:30   0.15   15.9    91    0.8   206     1.8   883.1    0.00 
  36    8:40   0.17   19.0    93    0.0     0     0.0   883.1    0.00 
  36    8:50   0.20   18.6    91    0.0     0     0.0   883.0    0.00 
  36    9:00   0.22   19.5    92    0.5   216     2.0   883.0    0.00 
  36    9:10   0.24   20.5    91    1.9   233     2.9   882.9    0.00 
  36    9:20   0.26   20.9    91    1.7   225     2.6   882.9    0.00 
  36    9:30   0.29   22.6    91    1.3   201     2.0   882.7    0.00 
  36    9:40   0.31   23.8    89    1.4   219     2.2   882.6    0.00 
  36    9:50   0.34   26.4    89    0.6   221     1.9   882.4    0.00 
  36   10:00   0.38   27.3    84    2.3   232     3.7   882.4    0.00 
  36   10:10   0.41   27.1    84    3.0   250     4.0   882.3    0.00 
  36   10:20   0.44   28.1    82    3.2   257     4.4   882.4    0.00 
  36   10:30   0.48   29.1    80    2.7   252     4.2   882.5    0.00 
  36   10:40   0.52   29.8    77    3.0   247     4.2   882.5    0.00 
  36   10:50   0.54   30.5    77    2.8   240     4.2   882.5    0.00 
  36   11:00   0.55   31.8    74    2.0   234     3.1   882.5    0.00 
  36   11:10   0.56   33.1    73    1.7   213     2.7   882.4    0.00 
  36   11:20   0.59   35.0    69    1.6   229     2.9   882.4    0.00 
  36   11:30   0.59   35.5    68    2.4   218     4.0   882.4    0.00 
  36   11:40   0.61   37.4    64    1.1   258     3.4   882.3    0.00 
  36   11:50   0.62   39.6    58    1.3   238     2.9   882.0    0.00 
  36   12:00   0.62   37.9    62    2.5   242     4.5   882.0    0.00 
  36   12:10   0.63   36.3    67    3.4   245     6.1   882.0    0.00 
  36   12:20   0.63   36.9    66    2.9   251     4.0   881.9    0.00 
  36   12:30   0.63   37.1    66    3.4   261     5.0   881.7    0.00 
  36   12:40   0.61   37.7    64    2.9   248     4.2   881.6    0.00 
  36   12:50   0.60   37.6    65    2.5   257     3.8   881.6    0.00 
  36   13:00   0.61   38.7    63    2.2   274     4.1   881.4    0.00 
  36   13:10   0.60   38.1    62    2.0   321     5.8   881.3    0.00 
  36   13:20   0.60   38.0    64    3.7   241     5.8   881.3    0.00 
  36   13:30   0.60   37.7    66    3.2   219     4.6   881.2    0.00 
  36   13:40   0.58   39.3    61    1.2   201     4.8   881.1    0.00 
  36   13:50   0.58   39.4    62    2.9   242     4.2   881.1    0.00 
  36   14:00   0.56   39.8    61    3.0   259     4.5   881.1    0.00 
  36   14:10   0.53   39.5    62    3.7   256     6.1   881.1    0.00 
  36   14:20   0.53   39.2    62    4.3   256     6.3   881.0    0.00 
  36   14:30   0.51   38.5    65    4.7   254     6.6   881.1    0.00 
  36   14:40   0.49   38.2    66    5.2   256     6.9   881.1    0.00 
  36   14:50   0.50   39.4    63    3.3   242     5.0   881.0    0.00 
  36   15:00   0.41   39.4    62    2.6   229     3.4   880.9    0.00 
  36   15:10   0.30   38.6    66    3.3   232     4.5   880.9    0.00 
  36   15:20   0.25   37.8    69    2.0   228     3.5   880.9    0.00 
  36   15:30   0.33   38.1    68    3.1   234     4.5   880.8    0.00 
  36   15:40   0.28   38.0    67    3.7   226     5.6   880.7    0.00 
  36   15:50   0.23   37.5    69    3.6   223     5.8   880.6    0.00 
  36   16:00   0.12   36.4    70    3.0   237     4.5   880.7    0.00 
  36   16:10   0.18   36.6    71    1.2   218     2.3   880.5    0.00 
  36   16:20   0.21   38.4    66    1.2   219     2.3   880.5    0.00 
  36   16:30   0.19   38.2    67    1.6   221     2.6   880.4    0.00 
  36   16:40   0.10   36.8    67    2.2   244     3.1   880.5    0.00 
  36   16:50   0.09   35.4    70    2.6   248     3.4   880.4    0.00 
  36   17:00   0.07   34.6    74    1.6   222     2.2   880.3    0.00 
  36   17:10   0.04   33.4    77    1.4   222     2.2   880.3    0.00 
  36   17:20   0.02   32.7    78    1.2   219     2.3   880.1    0.00 
  36   17:30   0.01   32.3    79    1.0   234     2.1   880.0    0.00 
  36   17:40   0.00   32.3    79    1.3   222     1.9   880.0    0.00 
  36   17:50   0.00   31.9    80    1.1   219     2.0   880.0    0.00 
  36   18:00   0.00   31.0    82    0.6   181     1.7   880.1    0.00 
  36   18:10   0.00   30.2    83    0.1   242     1.3   880.2    0.00 
  36   18:20   0.00   28.1    86    0.8   306     1.8   880.3    0.00 
  36   18:30   0.00   27.7    89    1.2    64     2.0   880.3    0.00 
  36   18:40   0.00   30.0    86    0.6    71     1.2   880.2    0.00 
  36   18:50   0.00   29.6    83    1.7   144     2.6   880.1    0.00 
  36   19:00   0.00   28.4    85    2.1   160     2.9   880.2    0.00 
  36   19:10   0.00   27.9    86    1.0   166     1.8   880.2    0.00 
  36   19:20   0.00   26.7    88    2.5   147     4.2   880.1    0.00 
  36   19:30   0.00   25.9    90    1.9   166     2.9   880.0    0.00 
  36   19:40   0.00   25.8    90    2.0   142     3.1   880.0    0.00 
  36   19:50   0.00   25.1    91    2.5   133     3.2   880.1    0.00 
  36   20:00   0.00   24.6    92    1.2   183     2.1   880.2    0.00 
  36   20:10   0.00   24.9    93    1.9   145     2.4   880.2    0.00 
  36   20:20   0.00   24.3    93    1.2   134     2.5   880.2    0.00 
  36   20:30   0.00   24.4    94    3.4   141     4.2   880.1    0.00 
  36   20:40   0.00   24.3    93    2.4   120     3.7   880.2    0.00 
  36   20:50   0.00   23.9    94    3.5   112     4.3   880.2    0.00 
  36   21:00   0.00   24.4    93    1.7   104     2.8   880.4    0.00 
  36   21:10   0.00   23.6    92    1.5    91     3.3   880.5    0.00 
  36   21:20   0.00   22.9    93    0.9   139     2.0   880.5    0.00 
  36   21:30   0.00   23.1    93    1.7   124     2.8   880.4    0.00 
  36   21:40   0.00   22.6    94    1.5   167     2.3   880.6    0.00 
  36   21:50   0.00   23.1    94    2.4   163     3.0   880.5    0.00 
  36   22:00   0.00   23.0    94    0.4   164     2.0   880.7    0.00 
  36   22:10   0.00   22.7    94    1.1   279     2.6   880.9    0.00 
  36   22:20   0.00   22.6    94    1.0   276     2.2   881.1    0.00 
  36   22:30   0.00   21.7    94    0.3   270     2.0   881.0    0.00 
  36   22:40   0.00   21.2    94    2.3   125     3.2   880.9    0.00 
  36   22:50   0.00   21.3    95    1.8   142     2.3   881.1    0.00 
  36   23:00   0.00   21.1    95    2.2   170     3.2   881.3    0.00 
  36   23:10   0.00   21.0    95    1.0   162     2.2   881.4    0.00 
  36   23:20   0.00   20.8    95    1.1   172     1.8   881.4    0.00 
  36   23:30   0.00   20.6    95    1.0   140     1.9   881.4    0.00 
  36   23:40   0.00   20.5    95    1.9   150     2.6   881.2    0.00 
  36   23:50   0.00   20.8    95    2.2   193     3.1   881.2    0.00 
  37    0:00   0.00   20.6    95    1.0   198     2.1   881.4    0.00 
  37    0:10   0.00   19.2    94    1.8   110     3.6   881.2    0.00 
  37    0:20   0.00   18.6    95    2.6   112     4.5   881.0    0.00 
  37    0:30   0.00   18.8    95    0.7   142     2.7   881.0    0.00 
  37    0:40   0.00   19.1    95    0.2   159     1.2   881.1    0.00 
  37    0:50   0.00   18.7    95    0.0    90     0.7   881.1    0.00 
  37    1:00   0.00   19.0    95    0.0     0     0.0   881.2    0.00 
  37    1:10   0.00   19.3    95    0.3   102     0.9   881.2    0.00 
  37    1:20   0.00   20.1    96    1.5   122     2.5   881.2    0.00 
  37    1:30   0.00   20.8    95    1.4   121     2.3   881.2    0.00 
  37    1:40   0.00   20.9    95    1.8   120     2.4   881.0    0.00 
  37    1:50   0.00   20.6    95    1.6   123     2.3   881.0    0.00 
  37    2:00   0.00   20.4    95    1.6   116     2.9   880.8    0.00 
  37    2:10   0.00   20.5    95    2.1   161     3.1   880.8    0.00 
  37    2:20   0.00   20.9    95    3.3   189     4.9   880.8    0.00 
  37    2:30   0.00   21.2    95    2.4   248     5.3   880.7    0.00 
  37    2:40   0.00   20.8    94    0.7   273     1.8   880.7    0.00 
  37    2:50   0.00   20.6    94    1.3    18     2.6   880.7    0.00 
  37    3:00   0.00   19.9    94    1.1   335     2.5   880.7    0.00 
  37    3:10   0.00   19.6    94    0.1   306     0.7   880.6    0.00 
  37    3:20   0.00   19.3    94    1.7     4     2.7   880.7    0.00 
  37    3:30   0.00   19.3    95    1.1     7     2.8   880.7    0.00 
  37    3:40   0.00   19.3    94    2.8   118     4.2   880.7    0.00 
  37    3:50   0.00   18.8    95    2.3   178     3.0   880.8    0.00 
  37    4:00   0.00   18.9    95    1.9   169     2.5   880.7    0.00 
  37    4:10   0.00   18.7    94    1.5   156     2.3   880.8    0.00 
  37    4:20   0.00   18.3    94    2.6   134     3.9   880.7    0.00 
  37    4:30   0.00   17.6    94    1.9   153     2.8   880.7    0.00 
  37    4:40   0.00   17.7    94    2.6   158     3.7   880.7    0.00 

Return to Mason Valley Wildlife Refuge graphs page.


Western Regional Climate Center,wrcc@dri.edu